sensor_id;sensor_type;location;lat;lon;timestamp;P1;durP1;ratioP1;P2;durP2;ratioP2
980;SDS011;479;53.514;9.994;2022-12-24T00:02:14;16.33;;;7.53;;
980;SDS011;479;53.514;9.994;2022-12-24T00:04:41;16.63;;;7.80;;
980;SDS011;479;53.514;9.994;2022-12-24T00:07:08;12.40;;;7.55;;
980;SDS011;479;53.514;9.994;2022-12-24T00:09:36;21.23;;;9.20;;
980;SDS011;479;53.514;9.994;2022-12-24T00:12:03;18.10;;;10.30;;
980;SDS011;479;53.514;9.994;2022-12-24T00:14:31;14.35;;;8.40;;
980;SDS011;479;53.514;9.994;2022-12-24T00:16:57;14.85;;;8.15;;
980;SDS011;479;53.514;9.994;2022-12-24T00:19:24;15.50;;;8.43;;
980;SDS011;479;53.514;9.994;2022-12-24T00:21:51;22.90;;;11.98;;
980;SDS011;479;53.514;9.994;2022-12-24T00:24:18;15.27;;;9.10;;
980;SDS011;479;53.514;9.994;2022-12-24T00:26:46;9.48;;;5.72;;
980;SDS011;479;53.514;9.994;2022-12-24T00:29:13;10.48;;;6.63;;
980;SDS011;479;53.514;9.994;2022-12-24T00:31:40;13.55;;;6.15;;
980;SDS011;479;53.514;9.994;2022-12-24T00:34:07;9.00;;;6.18;;
980;SDS011;479;53.514;9.994;2022-12-24T00:36:34;13.65;;;8.35;;
980;SDS011;479;53.514;9.994;2022-12-24T00:39:00;13.23;;;6.80;;
980;SDS011;479;53.514;9.994;2022-12-24T00:41:27;12.25;;;6.10;;
980;SDS011;479;53.514;9.994;2022-12-24T00:43:56;10.57;;;6.60;;
980;SDS011;479;53.514;9.994;2022-12-24T00:46:25;13.73;;;8.07;;
980;SDS011;479;53.514;9.994;2022-12-24T00:48:54;12.80;;;7.28;;
980;SDS011;479;53.514;9.994;2022-12-24T00:51:21;14.90;;;7.95;;
980;SDS011;479;53.514;9.994;2022-12-24T00:53:49;14.45;;;6.68;;
980;SDS011;479;53.514;9.994;2022-12-24T00:56:16;19.83;;;8.73;;
980;SDS011;479;53.514;9.994;2022-12-24T00:58:44;20.05;;;9.52;;
980;SDS011;479;53.514;9.994;2022-12-24T01:01:13;10.80;;;6.07;;
980;SDS011;479;53.514;9.994;2022-12-24T01:03:40;10.13;;;6.70;;
980;SDS011;479;53.514;9.994;2022-12-24T01:06:08;12.15;;;6.80;;
980;SDS011;479;53.514;9.994;2022-12-24T01:08:36;14.48;;;8.30;;
980;SDS011;479;53.514;9.994;2022-12-24T01:11:03;8.43;;;6.05;;
980;SDS011;479;53.514;9.994;2022-12-24T01:13:31;10.68;;;7.38;;
980;SDS011;479;53.514;9.994;2022-12-24T01:15:58;10.50;;;6.13;;
980;SDS011;479;53.514;9.994;2022-12-24T01:18:27;9.63;;;6.30;;
980;SDS011;479;53.514;9.994;2022-12-24T01:20:55;13.95;;;7.32;;
980;SDS011;479;53.514;9.994;2022-12-24T01:23:23;11.73;;;6.60;;
980;SDS011;479;53.514;9.994;2022-12-24T01:25:50;11.05;;;6.30;;
980;SDS011;479;53.514;9.994;2022-12-24T01:28:17;16.52;;;6.15;;
980;SDS011;479;53.514;9.994;2022-12-24T01:30:45;19.38;;;7.03;;
980;SDS011;479;53.514;9.994;2022-12-24T01:33:12;14.20;;;8.05;;
980;SDS011;479;53.514;9.994;2022-12-24T01:35:41;12.38;;;6.25;;
980;SDS011;479;53.514;9.994;2022-12-24T01:38:09;13.75;;;7.05;;
980;SDS011;479;53.514;9.994;2022-12-24T01:40:37;11.13;;;7.40;;
980;SDS011;479;53.514;9.994;2022-12-24T01:43:22;13.75;;;7.10;;
980;SDS011;479;53.514;9.994;2022-12-24T01:45:53;9.90;;;6.75;;
980;SDS011;479;53.514;9.994;2022-12-24T01:48:22;16.25;;;8.18;;
980;SDS011;479;53.514;9.994;2022-12-24T01:50:58;9.27;;;5.60;;
980;SDS011;479;53.514;9.994;2022-12-24T01:53:27;12.88;;;7.65;;
980;SDS011;479;53.514;9.994;2022-12-24T01:55:56;21.05;;;10.32;;
980;SDS011;479;53.514;9.994;2022-12-24T01:58:23;17.17;;;8.75;;
980;SDS011;479;53.514;9.994;2022-12-24T02:00:52;12.40;;;6.97;;
980;SDS011;479;53.514;9.994;2022-12-24T02:03:18;13.40;;;7.32;;
980;SDS011;479;53.514;9.994;2022-12-24T02:05:47;8.85;;;5.75;;
980;SDS011;479;53.514;9.994;2022-12-24T02:08:16;9.95;;;6.75;;
980;SDS011;479;53.514;9.994;2022-12-24T02:10:43;10.10;;;7.15;;
980;SDS011;479;53.514;9.994;2022-12-24T02:13:11;15.45;;;8.73;;
980;SDS011;479;53.514;9.994;2022-12-24T02:15:46;9.52;;;6.20;;
980;SDS011;479;53.514;9.994;2022-12-24T02:18:20;16.83;;;7.75;;
980;SDS011;479;53.514;9.994;2022-12-24T02:24:10;10.98;;;6.30;;
980;SDS011;479;53.514;9.994;2022-12-24T02:27:05;13.13;;;7.65;;
980;SDS011;479;53.514;9.994;2022-12-24T02:29:54;13.52;;;7.38;;
980;SDS011;479;53.514;9.994;2022-12-24T02:32:32;15.90;;;6.60;;
980;SDS011;479;53.514;9.994;2022-12-24T02:35:07;17.45;;;9.48;;
980;SDS011;479;53.514;9.994;2022-12-24T02:37:37;13.40;;;7.45;;
980;SDS011;479;53.514;9.994;2022-12-24T02:40:09;17.80;;;6.38;;
980;SDS011;479;53.514;9.994;2022-12-24T02:42:41;13.07;;;6.00;;
980;SDS011;479;53.514;9.994;2022-12-24T02:45:12;14.70;;;6.28;;
980;SDS011;479;53.514;9.994;2022-12-24T02:47:42;10.57;;;6.43;;
980;SDS011;479;53.514;9.994;2022-12-24T02:50:11;12.68;;;7.22;;
980;SDS011;479;53.514;9.994;2022-12-24T02:52:39;12.85;;;7.57;;
980;SDS011;479;53.514;9.994;2022-12-24T02:55:08;11.93;;;7.22;;
980;SDS011;479;53.514;9.994;2022-12-24T02:57:42;11.07;;;7.40;;
980;SDS011;479;53.514;9.994;2022-12-24T03:00:21;11.93;;;8.05;;
980;SDS011;479;53.514;9.994;2022-12-24T03:02:52;18.00;;;8.73;;
980;SDS011;479;53.514;9.994;2022-12-24T03:05:34;17.20;;;8.35;;
980;SDS011;479;53.514;9.994;2022-12-24T03:08:11;11.18;;;6.22;;
980;SDS011;479;53.514;9.994;2022-12-24T03:10:43;15.82;;;7.50;;
980;SDS011;479;53.514;9.994;2022-12-24T03:13:16;11.93;;;6.45;;
980;SDS011;479;53.514;9.994;2022-12-24T03:15:46;10.93;;;5.85;;
980;SDS011;479;53.514;9.994;2022-12-24T03:18:14;10.07;;;5.13;;
980;SDS011;479;53.514;9.994;2022-12-24T03:20:44;10.25;;;5.82;;
980;SDS011;479;53.514;9.994;2022-12-24T03:23:16;16.27;;;6.30;;
980;SDS011;479;53.514;9.994;2022-12-24T03:25:43;8.55;;;5.80;;
980;SDS011;479;53.514;9.994;2022-12-24T03:28:11;9.48;;;6.20;;
980;SDS011;479;53.514;9.994;2022-12-24T03:30:40;10.65;;;6.70;;
980;SDS011;479;53.514;9.994;2022-12-24T03:33:11;15.00;;;7.40;;
980;SDS011;479;53.514;9.994;2022-12-24T03:35:38;11.27;;;8.35;;
980;SDS011;479;53.514;9.994;2022-12-24T03:38:05;9.85;;;5.45;;
980;SDS011;479;53.514;9.994;2022-12-24T03:40:32;14.77;;;6.50;;
980;SDS011;479;53.514;9.994;2022-12-24T03:42:59;19.30;;;8.80;;
980;SDS011;479;53.514;9.994;2022-12-24T03:45:26;12.90;;;8.20;;
980;SDS011;479;53.514;9.994;2022-12-24T03:47:53;9.30;;;4.75;;
980;SDS011;479;53.514;9.994;2022-12-24T03:50:21;8.00;;;5.68;;
980;SDS011;479;53.514;9.994;2022-12-24T03:52:48;13.77;;;7.15;;
980;SDS011;479;53.514;9.994;2022-12-24T03:55:15;10.70;;;6.03;;
980;SDS011;479;53.514;9.994;2022-12-24T03:57:42;14.85;;;8.07;;
980;SDS011;479;53.514;9.994;2022-12-24T04:00:09;16.38;;;7.38;;
980;SDS011;479;53.514;9.994;2022-12-24T04:02:37;11.23;;;6.57;;
980;SDS011;479;53.514;9.994;2022-12-24T04:05:05;10.00;;;5.53;;
980;SDS011;479;53.514;9.994;2022-12-24T04:07:34;9.75;;;5.38;;
980;SDS011;479;53.514;9.994;2022-12-24T04:10:01;9.45;;;4.82;;
980;SDS011;479;53.514;9.994;2022-12-24T04:12:28;7.78;;;5.13;;
980;SDS011;479;53.514;9.994;2022-12-24T04:14:55;10.15;;;6.20;;
980;SDS011;479;53.514;9.994;2022-12-24T04:17:22;14.30;;;7.13;;
980;SDS011;479;53.514;9.994;2022-12-24T04:19:49;8.32;;;6.18;;
980;SDS011;479;53.514;9.994;2022-12-24T04:22:15;9.73;;;6.10;;
980;SDS011;479;53.514;9.994;2022-12-24T04:24:44;8.25;;;5.13;;
980;SDS011;479;53.514;9.994;2022-12-24T04:27:12;8.98;;;5.07;;
980;SDS011;479;53.514;9.994;2022-12-24T04:29:39;6.85;;;5.70;;
980;SDS011;479;53.514;9.994;2022-12-24T04:32:06;7.40;;;4.45;;
980;SDS011;479;53.514;9.994;2022-12-24T04:34:34;9.25;;;5.22;;
980;SDS011;479;53.514;9.994;2022-12-24T04:37:01;11.05;;;5.65;;
980;SDS011;479;53.514;9.994;2022-12-24T04:39:28;11.88;;;6.00;;
980;SDS011;479;53.514;9.994;2022-12-24T04:41:56;7.22;;;5.10;;
980;SDS011;479;53.514;9.994;2022-12-24T04:44:23;9.93;;;4.88;;
980;SDS011;479;53.514;9.994;2022-12-24T04:46:50;8.40;;;5.07;;
980;SDS011;479;53.514;9.994;2022-12-24T04:49:16;9.68;;;4.85;;
980;SDS011;479;53.514;9.994;2022-12-24T04:51:43;8.93;;;4.50;;
980;SDS011;479;53.514;9.994;2022-12-24T04:54:10;10.85;;;4.90;;
980;SDS011;479;53.514;9.994;2022-12-24T04:56:37;6.93;;;4.65;;
980;SDS011;479;53.514;9.994;2022-12-24T04:59:05;10.20;;;5.60;;
980;SDS011;479;53.514;9.994;2022-12-24T05:01:32;9.25;;;4.32;;
980;SDS011;479;53.514;9.994;2022-12-24T05:03:59;5.00;;;3.70;;
980;SDS011;479;53.514;9.994;2022-12-24T05:06:27;5.78;;;3.40;;
980;SDS011;479;53.514;9.994;2022-12-24T05:08:55;4.05;;;3.55;;
980;SDS011;479;53.514;9.994;2022-12-24T05:11:23;10.15;;;4.82;;
980;SDS011;479;53.514;9.994;2022-12-24T05:13:50;7.32;;;4.22;;
980;SDS011;479;53.514;9.994;2022-12-24T05:16:19;8.05;;;3.75;;
980;SDS011;479;53.514;9.994;2022-12-24T05:18:47;4.72;;;4.20;;
980;SDS011;479;53.514;9.994;2022-12-24T05:21:14;7.18;;;4.55;;
980;SDS011;479;53.514;9.994;2022-12-24T05:23:43;6.47;;;4.85;;
980;SDS011;479;53.514;9.994;2022-12-24T05:26:28;5.95;;;3.65;;
980;SDS011;479;53.514;9.994;2022-12-24T05:28:57;10.93;;;5.90;;
980;SDS011;479;53.514;9.994;2022-12-24T05:31:27;8.85;;;4.65;;
980;SDS011;479;53.514;9.994;2022-12-24T05:33:57;5.95;;;4.82;;
980;SDS011;479;53.514;9.994;2022-12-24T05:36:24;7.22;;;3.63;;
980;SDS011;479;53.514;9.994;2022-12-24T05:38:51;5.68;;;4.38;;
980;SDS011;479;53.514;9.994;2022-12-24T05:41:18;7.28;;;4.07;;
980;SDS011;479;53.514;9.994;2022-12-24T05:43:45;6.55;;;4.05;;
980;SDS011;479;53.514;9.994;2022-12-24T05:46:12;4.22;;;2.75;;
980;SDS011;479;53.514;9.994;2022-12-24T05:48:43;4.18;;;3.53;;
980;SDS011;479;53.514;9.994;2022-12-24T05:51:10;9.38;;;4.00;;
980;SDS011;479;53.514;9.994;2022-12-24T05:53:39;11.80;;;5.13;;
980;SDS011;479;53.514;9.994;2022-12-24T05:56:07;9.98;;;4.22;;
980;SDS011;479;53.514;9.994;2022-12-24T05:58:35;4.07;;;3.45;;
980;SDS011;479;53.514;9.994;2022-12-24T06:01:03;6.05;;;3.33;;
980;SDS011;479;53.514;9.994;2022-12-24T06:03:31;9.50;;;4.60;;
980;SDS011;479;53.514;9.994;2022-12-24T06:06:00;5.18;;;3.20;;
980;SDS011;479;53.514;9.994;2022-12-24T06:08:29;9.15;;;3.90;;
980;SDS011;479;53.514;9.994;2022-12-24T06:10:57;8.60;;;3.60;;
980;SDS011;479;53.514;9.994;2022-12-24T06:13:25;6.85;;;4.22;;
980;SDS011;479;53.514;9.994;2022-12-24T06:15:53;5.82;;;4.28;;
980;SDS011;479;53.514;9.994;2022-12-24T06:18:20;4.82;;;3.25;;
980;SDS011;479;53.514;9.994;2022-12-24T06:20:49;7.75;;;3.10;;
980;SDS011;479;53.514;9.994;2022-12-24T06:23:17;5.57;;;3.88;;
980;SDS011;479;53.514;9.994;2022-12-24T06:25:44;5.15;;;3.38;;
980;SDS011;479;53.514;9.994;2022-12-24T06:28:11;7.47;;;3.90;;
980;SDS011;479;53.514;9.994;2022-12-24T06:30:39;6.68;;;4.10;;
980;SDS011;479;53.514;9.994;2022-12-24T06:33:06;8.80;;;4.38;;
980;SDS011;479;53.514;9.994;2022-12-24T06:35:33;5.80;;;3.10;;
980;SDS011;479;53.514;9.994;2022-12-24T06:38:00;4.05;;;3.45;;
980;SDS011;479;53.514;9.994;2022-12-24T06:40:28;6.10;;;3.72;;
980;SDS011;479;53.514;9.994;2022-12-24T06:42:55;7.28;;;4.28;;
980;SDS011;479;53.514;9.994;2022-12-24T06:45:22;6.10;;;3.75;;
980;SDS011;479;53.514;9.994;2022-12-24T06:47:48;8.85;;;4.47;;
980;SDS011;479;53.514;9.994;2022-12-24T06:50:15;4.82;;;3.45;;
980;SDS011;479;53.514;9.994;2022-12-24T06:52:42;7.00;;;3.00;;
980;SDS011;479;53.514;9.994;2022-12-24T06:55:09;7.80;;;4.25;;
980;SDS011;479;53.514;9.994;2022-12-24T06:57:37;6.85;;;4.05;;
980;SDS011;479;53.514;9.994;2022-12-24T07:00:05;8.65;;;4.70;;
980;SDS011;479;53.514;9.994;2022-12-24T07:02:33;5.55;;;3.45;;
980;SDS011;479;53.514;9.994;2022-12-24T07:05:00;4.93;;;3.92;;
980;SDS011;479;53.514;9.994;2022-12-24T07:07:26;5.55;;;3.60;;
980;SDS011;479;53.514;9.994;2022-12-24T07:09:54;7.97;;;3.20;;
980;SDS011;479;53.514;9.994;2022-12-24T07:12:21;5.55;;;3.58;;
980;SDS011;479;53.514;9.994;2022-12-24T07:14:49;3.63;;;3.33;;
980;SDS011;479;53.514;9.994;2022-12-24T07:17:16;3.88;;;3.00;;
980;SDS011;479;53.514;9.994;2022-12-24T07:19:43;6.70;;;2.80;;
980;SDS011;479;53.514;9.994;2022-12-24T07:22:10;5.20;;;3.67;;
980;SDS011;479;53.514;9.994;2022-12-24T07:24:37;8.65;;;4.60;;
980;SDS011;479;53.514;9.994;2022-12-24T07:27:03;9.48;;;4.00;;
980;SDS011;479;53.514;9.994;2022-12-24T07:29:30;4.40;;;2.88;;
980;SDS011;479;53.514;9.994;2022-12-24T07:31:58;8.65;;;5.18;;
980;SDS011;479;53.514;9.994;2022-12-24T07:34:25;3.20;;;2.67;;
980;SDS011;479;53.514;9.994;2022-12-24T07:36:52;9.38;;;4.38;;
980;SDS011;479;53.514;9.994;2022-12-24T07:39:19;5.05;;;2.80;;
980;SDS011;479;53.514;9.994;2022-12-24T07:41:46;5.80;;;2.97;;
980;SDS011;479;53.514;9.994;2022-12-24T07:44:14;5.78;;;2.72;;
980;SDS011;479;53.514;9.994;2022-12-24T07:46:41;4.88;;;3.85;;
980;SDS011;479;53.514;9.994;2022-12-24T07:49:10;4.60;;;3.22;;
980;SDS011;479;53.514;9.994;2022-12-24T07:51:36;6.70;;;3.40;;
980;SDS011;479;53.514;9.994;2022-12-24T07:54:04;4.57;;;3.35;;
980;SDS011;479;53.514;9.994;2022-12-24T07:56:31;3.88;;;3.58;;
980;SDS011;479;53.514;9.994;2022-12-24T07:58:58;3.92;;;3.40;;
980;SDS011;479;53.514;9.994;2022-12-24T08:01:25;5.88;;;3.67;;
980;SDS011;479;53.514;9.994;2022-12-24T08:03:52;5.65;;;4.38;;
980;SDS011;479;53.514;9.994;2022-12-24T08:06:20;3.05;;;2.75;;
980;SDS011;479;53.514;9.994;2022-12-24T08:08:47;8.00;;;4.20;;
980;SDS011;479;53.514;9.994;2022-12-24T08:11:14;4.15;;;3.05;;
980;SDS011;479;53.514;9.994;2022-12-24T08:13:41;5.80;;;3.90;;
980;SDS011;479;53.514;9.994;2022-12-24T08:16:08;4.40;;;3.60;;
980;SDS011;479;53.514;9.994;2022-12-24T08:18:35;8.95;;;3.70;;
980;SDS011;479;53.514;9.994;2022-12-24T08:21:02;4.60;;;3.15;;
980;SDS011;479;53.514;9.994;2022-12-24T08:23:33;4.13;;;2.95;;
980;SDS011;479;53.514;9.994;2022-12-24T08:26:00;4.60;;;3.20;;
980;SDS011;479;53.514;9.994;2022-12-24T08:28:28;6.13;;;3.85;;
980;SDS011;479;53.514;9.994;2022-12-24T08:30:55;4.50;;;3.30;;
980;SDS011;479;53.514;9.994;2022-12-24T08:33:22;2.30;;;2.10;;
980;SDS011;479;53.514;9.994;2022-12-24T08:35:49;6.55;;;3.30;;
980;SDS011;479;53.514;9.994;2022-12-24T08:38:17;3.45;;;2.55;;
980;SDS011;479;53.514;9.994;2022-12-24T08:40:45;5.45;;;2.75;;
980;SDS011;479;53.514;9.994;2022-12-24T08:43:14;5.68;;;2.97;;
980;SDS011;479;53.514;9.994;2022-12-24T08:45:41;4.40;;;3.45;;
980;SDS011;479;53.514;9.994;2022-12-24T08:48:09;3.60;;;3.30;;
980;SDS011;479;53.514;9.994;2022-12-24T08:50:37;6.35;;;3.90;;
980;SDS011;479;53.514;9.994;2022-12-24T08:53:05;7.82;;;3.63;;
980;SDS011;479;53.514;9.994;2022-12-24T08:55:32;3.38;;;2.97;;
980;SDS011;479;53.514;9.994;2022-12-24T08:58:00;4.97;;;3.90;;
980;SDS011;479;53.514;9.994;2022-12-24T09:00:27;3.65;;;2.63;;
980;SDS011;479;53.514;9.994;2022-12-24T09:02:55;4.68;;;3.17;;
980;SDS011;479;53.514;9.994;2022-12-24T09:05:22;6.82;;;3.13;;
980;SDS011;479;53.514;9.994;2022-12-24T09:07:50;6.00;;;3.63;;
980;SDS011;479;53.514;9.994;2022-12-24T09:10:17;5.70;;;4.07;;
980;SDS011;479;53.514;9.994;2022-12-24T09:12:43;4.65;;;3.67;;
980;SDS011;479;53.514;9.994;2022-12-24T09:15:12;8.80;;;4.45;;
980;SDS011;479;53.514;9.994;2022-12-24T09:17:39;7.07;;;3.65;;
980;SDS011;479;53.514;9.994;2022-12-24T09:20:06;6.72;;;4.05;;
980;SDS011;479;53.514;9.994;2022-12-24T09:22:37;5.10;;;3.65;;
980;SDS011;479;53.514;9.994;2022-12-24T09:25:04;4.78;;;3.13;;
980;SDS011;479;53.514;9.994;2022-12-24T09:27:33;4.65;;;3.67;;
980;SDS011;479;53.514;9.994;2022-12-24T09:29:59;4.95;;;3.08;;
980;SDS011;479;53.514;9.994;2022-12-24T09:32:28;5.95;;;3.90;;
980;SDS011;479;53.514;9.994;2022-12-24T09:34:54;3.60;;;3.30;;
980;SDS011;479;53.514;9.994;2022-12-24T09:37:21;4.40;;;3.35;;
980;SDS011;479;53.514;9.994;2022-12-24T09:39:48;7.18;;;4.90;;
980;SDS011;479;53.514;9.994;2022-12-24T09:42:18;6.07;;;4.00;;
980;SDS011;479;53.514;9.994;2022-12-24T09:44:55;3.97;;;3.58;;
980;SDS011;479;53.514;9.994;2022-12-24T09:47:31;5.32;;;3.10;;
980;SDS011;479;53.514;9.994;2022-12-24T09:50:03;6.35;;;3.45;;
980;SDS011;479;53.514;9.994;2022-12-24T09:52:42;8.57;;;5.93;;
980;SDS011;479;53.514;9.994;2022-12-24T09:55:14;4.05;;;2.80;;
980;SDS011;479;53.514;9.994;2022-12-24T09:57:48;4.72;;;3.22;;
980;SDS011;479;53.514;9.994;2022-12-24T10:00:20;3.42;;;2.50;;
980;SDS011;479;53.514;9.994;2022-12-24T10:02:50;4.43;;;3.88;;
980;SDS011;479;53.514;9.994;2022-12-24T10:05:17;8.75;;;5.00;;
980;SDS011;479;53.514;9.994;2022-12-24T10:07:56;5.57;;;3.85;;
980;SDS011;479;53.514;9.994;2022-12-24T10:10:34;6.35;;;3.88;;
980;SDS011;479;53.514;9.994;2022-12-24T10:13:09;6.15;;;5.55;;
980;SDS011;479;53.514;9.994;2022-12-24T10:15:43;8.48;;;5.30;;
980;SDS011;479;53.514;9.994;2022-12-24T10:18:24;3.35;;;3.05;;
980;SDS011;479;53.514;9.994;2022-12-24T10:20:59;12.88;;;6.32;;
980;SDS011;479;53.514;9.994;2022-12-24T10:23:36;6.40;;;4.38;;
980;SDS011;479;53.514;9.994;2022-12-24T10:26:11;5.43;;;4.32;;
980;SDS011;479;53.514;9.994;2022-12-24T10:28:42;4.93;;;3.10;;
980;SDS011;479;53.514;9.994;2022-12-24T10:31:13;5.10;;;3.35;;
980;SDS011;479;53.514;9.994;2022-12-24T10:33:42;15.80;;;4.07;;
980;SDS011;479;53.514;9.994;2022-12-24T10:36:14;4.40;;;3.22;;
980;SDS011;479;53.514;9.994;2022-12-24T10:38:43;5.32;;;3.63;;
980;SDS011;479;53.514;9.994;2022-12-24T10:41:11;4.93;;;4.03;;
980;SDS011;479;53.514;9.994;2022-12-24T10:43:39;3.35;;;2.85;;
980;SDS011;479;53.514;9.994;2022-12-24T10:46:12;6.70;;;5.45;;
980;SDS011;479;53.514;9.994;2022-12-24T10:48:47;3.90;;;3.50;;
980;SDS011;479;53.514;9.994;2022-12-24T10:51:19;6.68;;;4.47;;
980;SDS011;479;53.514;9.994;2022-12-24T10:53:48;3.45;;;2.85;;
980;SDS011;479;53.514;9.994;2022-12-24T10:56:18;7.63;;;5.35;;
980;SDS011;479;53.514;9.994;2022-12-24T10:58:49;7.10;;;3.97;;
980;SDS011;479;53.514;9.994;2022-12-24T11:01:17;5.03;;;4.25;;
980;SDS011;479;53.514;9.994;2022-12-24T11:03:45;6.18;;;4.78;;
980;SDS011;479;53.514;9.994;2022-12-24T11:06:25;4.90;;;4.40;;
980;SDS011;479;53.514;9.994;2022-12-24T11:08:52;6.20;;;4.97;;
980;SDS011;479;53.514;9.994;2022-12-24T11:11:19;8.13;;;4.88;;
980;SDS011;479;53.514;9.994;2022-12-24T11:13:51;9.43;;;6.60;;
980;SDS011;479;53.514;9.994;2022-12-24T11:16:22;4.63;;;4.10;;
980;SDS011;479;53.514;9.994;2022-12-24T11:18:54;4.07;;;3.20;;
980;SDS011;479;53.514;9.994;2022-12-24T11:21:23;5.75;;;4.00;;
980;SDS011;479;53.514;9.994;2022-12-24T11:23:53;5.97;;;4.55;;
980;SDS011;479;53.514;9.994;2022-12-24T11:26:22;9.65;;;4.45;;
980;SDS011;479;53.514;9.994;2022-12-24T11:29:04;6.40;;;4.97;;
980;SDS011;479;53.514;9.994;2022-12-24T11:31:38;6.70;;;5.15;;
980;SDS011;479;53.514;9.994;2022-12-24T11:34:18;6.32;;;5.65;;
980;SDS011;479;53.514;9.994;2022-12-24T11:36:49;5.53;;;4.30;;
980;SDS011;479;53.514;9.994;2022-12-24T11:39:18;7.93;;;5.07;;
980;SDS011;479;53.514;9.994;2022-12-24T11:41:47;5.50;;;5.10;;
980;SDS011;479;53.514;9.994;2022-12-24T11:44:15;6.70;;;5.22;;
980;SDS011;479;53.514;9.994;2022-12-24T11:46:50;5.90;;;4.70;;
980;SDS011;479;53.514;9.994;2022-12-24T11:49:23;7.65;;;4.63;;
980;SDS011;479;53.514;9.994;2022-12-24T11:52:12;7.22;;;5.25;;
980;SDS011;479;53.514;9.994;2022-12-24T11:54:49;6.50;;;5.43;;
980;SDS011;479;53.514;9.994;2022-12-24T11:57:27;6.72;;;4.50;;
980;SDS011;479;53.514;9.994;2022-12-24T12:00:00;6.15;;;4.40;;
980;SDS011;479;53.514;9.994;2022-12-24T12:02:27;10.85;;;8.05;;
980;SDS011;479;53.514;9.994;2022-12-24T12:05:02;7.10;;;5.45;;
980;SDS011;479;53.514;9.994;2022-12-24T12:07:34;7.45;;;5.95;;
980;SDS011;479;53.514;9.994;2022-12-24T12:10:03;9.18;;;4.30;;
980;SDS011;479;53.514;9.994;2022-12-24T12:12:33;5.43;;;4.27;;
980;SDS011;479;53.514;9.994;2022-12-24T12:15:05;8.23;;;5.20;;
980;SDS011;479;53.514;9.994;2022-12-24T12:17:38;9.60;;;5.47;;
980;SDS011;479;53.514;9.994;2022-12-24T12:20:11;7.17;;;4.80;;
980;SDS011;479;53.514;9.994;2022-12-24T12:22:44;5.43;;;4.73;;
980;SDS011;479;53.514;9.994;2022-12-24T12:25:20;10.87;;;6.63;;
980;SDS011;479;53.514;9.994;2022-12-24T12:27:48;5.70;;;4.30;;
980;SDS011;479;53.514;9.994;2022-12-24T12:30:18;8.47;;;6.00;;
980;SDS011;479;53.514;9.994;2022-12-24T12:32:47;4.90;;;4.40;;
980;SDS011;479;53.514;9.994;2022-12-24T12:35:22;7.30;;;5.13;;
980;SDS011;479;53.514;9.994;2022-12-24T12:37:53;8.23;;;5.30;;
980;SDS011;479;53.514;9.994;2022-12-24T12:40:25;6.57;;;5.57;;
980;SDS011;479;53.514;9.994;2022-12-24T12:43:05;7.10;;;5.50;;
980;SDS011;479;53.514;9.994;2022-12-24T12:45:42;9.63;;;6.83;;
980;SDS011;479;53.514;9.994;2022-12-24T12:48:19;9.90;;;5.60;;
980;SDS011;479;53.514;9.994;2022-12-24T12:50:56;7.50;;;4.83;;
980;SDS011;479;53.514;9.994;2022-12-24T12:53:37;6.60;;;5.90;;
980;SDS011;479;53.514;9.994;2022-12-24T12:56:18;9.67;;;6.80;;
980;SDS011;479;53.514;9.994;2022-12-24T12:58:50;9.00;;;6.80;;
980;SDS011;479;53.514;9.994;2022-12-24T13:01:22;8.77;;;6.13;;
980;SDS011;479;53.514;9.994;2022-12-24T13:04:08;10.30;;;5.27;;
980;SDS011;479;53.514;9.994;2022-12-24T13:07:02;9.30;;;5.70;;
980;SDS011;479;53.514;9.994;2022-12-24T13:10:05;8.37;;;6.20;;
980;SDS011;479;53.514;9.994;2022-12-24T13:12:45;7.83;;;5.63;;
980;SDS011;479;53.514;9.994;2022-12-24T13:15:28;10.07;;;6.60;;
980;SDS011;479;53.514;9.994;2022-12-24T13:18:24;9.70;;;6.20;;
980;SDS011;479;53.514;9.994;2022-12-24T13:21:03;12.33;;;7.63;;
980;SDS011;479;53.514;9.994;2022-12-24T13:23:31;10.20;;;6.80;;
980;SDS011;479;53.514;9.994;2022-12-24T13:25:58;10.10;;;6.90;;
980;SDS011;479;53.514;9.994;2022-12-24T13:28:36;11.40;;;7.17;;
980;SDS011;479;53.514;9.994;2022-12-24T13:31:23;5.30;;;4.50;;
980;SDS011;479;53.514;9.994;2022-12-24T13:33:54;7.13;;;5.23;;
980;SDS011;479;53.514;9.994;2022-12-24T13:36:58;8.10;;;5.80;;
980;SDS011;479;53.514;9.994;2022-12-24T13:39:27;7.00;;;6.20;;
980;SDS011;479;53.514;9.994;2022-12-24T13:41:54;11.60;;;6.30;;
980;SDS011;479;53.514;9.994;2022-12-24T13:44:22;9.47;;;6.10;;
980;SDS011;479;53.514;9.994;2022-12-24T13:46:53;6.73;;;4.97;;
980;SDS011;479;53.514;9.994;2022-12-24T13:49:30;8.57;;;6.33;;
980;SDS011;479;53.514;9.994;2022-12-24T13:52:07;11.10;;;7.93;;
980;SDS011;479;53.514;9.994;2022-12-24T13:55:13;11.53;;;8.10;;
980;SDS011;479;53.514;9.994;2022-12-24T13:57:43;7.60;;;6.23;;
980;SDS011;479;53.514;9.994;2022-12-24T14:00:30;8.33;;;6.50;;
980;SDS011;479;53.514;9.994;2022-12-24T14:03:06;11.70;;;5.97;;
980;SDS011;479;53.514;9.994;2022-12-24T14:05:48;6.80;;;6.10;;
980;SDS011;479;53.514;9.994;2022-12-24T14:08:24;11.40;;;7.80;;
980;SDS011;479;53.514;9.994;2022-12-24T14:11:03;12.40;;;6.97;;
980;SDS011;479;53.514;9.994;2022-12-24T14:16:40;9.93;;;8.20;;
980;SDS011;479;53.514;9.994;2022-12-24T14:19:17;13.30;;;8.10;;
980;SDS011;479;53.514;9.994;2022-12-24T14:21:50;9.90;;;7.00;;
980;SDS011;479;53.514;9.994;2022-12-24T14:24:21;13.30;;;8.40;;
980;SDS011;479;53.514;9.994;2022-12-24T14:26:53;12.53;;;9.03;;
980;SDS011;479;53.514;9.994;2022-12-24T14:29:25;10.67;;;8.20;;
980;SDS011;479;53.514;9.994;2022-12-24T14:31:55;12.70;;;8.40;;
980;SDS011;479;53.514;9.994;2022-12-24T14:34:24;10.07;;;7.47;;
980;SDS011;479;53.514;9.994;2022-12-24T14:36:52;15.47;;;12.10;;
980;SDS011;479;53.514;9.994;2022-12-24T14:39:22;10.83;;;7.10;;
980;SDS011;479;53.514;9.994;2022-12-24T14:41:58;10.43;;;8.10;;
980;SDS011;479;53.514;9.994;2022-12-24T14:44:34;12.27;;;8.90;;
980;SDS011;479;53.514;9.994;2022-12-24T14:47:11;13.17;;;8.10;;
980;SDS011;479;53.514;9.994;2022-12-24T14:49:52;22.67;;;12.77;;
980;SDS011;479;53.514;9.994;2022-12-24T14:52:32;11.80;;;8.93;;
980;SDS011;479;53.514;9.994;2022-12-24T15:00:54;36.80;;;23.37;;
980;SDS011;479;53.514;9.994;2022-12-24T15:03:23;13.33;;;9.13;;
980;SDS011;479;53.514;9.994;2022-12-24T15:05:52;12.20;;;7.83;;
980;SDS011;479;53.514;9.994;2022-12-24T15:08:24;12.97;;;6.20;;
980;SDS011;479;53.514;9.994;2022-12-24T15:10:59;12.67;;;7.10;;
980;SDS011;479;53.514;9.994;2022-12-24T15:13:30;13.27;;;7.33;;
980;SDS011;479;53.514;9.994;2022-12-24T15:16:00;8.70;;;6.70;;
980;SDS011;479;53.514;9.994;2022-12-24T15:18:29;9.47;;;5.63;;
980;SDS011;479;53.514;9.994;2022-12-24T15:20:59;16.70;;;7.20;;
980;SDS011;479;53.514;9.994;2022-12-24T15:23:29;11.87;;;6.87;;
980;SDS011;479;53.514;9.994;2022-12-24T15:26:07;12.87;;;7.30;;
980;SDS011;479;53.514;9.994;2022-12-24T15:28:48;9.13;;;6.17;;
980;SDS011;479;53.514;9.994;2022-12-24T15:31:16;18.00;;;11.33;;
980;SDS011;479;53.514;9.994;2022-12-24T15:33:44;12.93;;;7.80;;
980;SDS011;479;53.514;9.994;2022-12-24T15:36:13;13.23;;;7.83;;
980;SDS011;479;53.514;9.994;2022-12-24T15:38:41;12.00;;;6.70;;
980;SDS011;479;53.514;9.994;2022-12-24T15:41:14;8.57;;;4.53;;
980;SDS011;479;53.514;9.994;2022-12-24T15:43:44;9.00;;;4.27;;
980;SDS011;479;53.514;9.994;2022-12-24T15:46:18;7.43;;;4.67;;
980;SDS011;479;53.514;9.994;2022-12-24T15:48:47;13.73;;;4.27;;
980;SDS011;479;53.514;9.994;2022-12-24T15:51:19;12.73;;;4.60;;
980;SDS011;479;53.514;9.994;2022-12-24T15:53:49;6.73;;;3.60;;
980;SDS011;479;53.514;9.994;2022-12-24T15:56:27;12.13;;;3.47;;
980;SDS011;479;53.514;9.994;2022-12-24T15:59:12;9.20;;;3.37;;
980;SDS011;479;53.514;9.994;2022-12-24T16:01:49;12.37;;;3.60;;
980;SDS011;479;53.514;9.994;2022-12-24T16:04:22;5.47;;;4.20;;
980;SDS011;479;53.514;9.994;2022-12-24T16:06:54;8.03;;;3.77;;
980;SDS011;479;53.514;9.994;2022-12-24T16:09:29;8.53;;;5.20;;
980;SDS011;479;53.514;9.994;2022-12-24T16:12:11;8.90;;;3.87;;
980;SDS011;479;53.514;9.994;2022-12-24T16:14:43;6.73;;;4.07;;